Time;durP1;ratioP1;P1;durP2;ratioP2;P2;SDS_P1;SDS_P2;PMS_P1;PMS_P2;Temp;Humidity;BMP_temperature;BMP_pressure;BME280_temperature;BME280_humidity;BME280_pressure;Samples;Min_cycle;Max_cycle;Signal;HPM_P1;HPM_P2
2021/11/05 00:02:29;;;;;;;11.95;8.85;;;;;;;8.99;72.98;100258.25;5010115;28;20502;-45
2021/11/05 00:04:54;;;;;;;11.65;8.55;;;;;;;9.00;73.38;100251.22;4997223;28;20109;-45
2021/11/05 00:07:19;;;;;;;11.65;8.65;;;;;;;9.00;72.95;100254.72;4998930;28;20022;-44
2021/11/05 00:09:46;;;;;;;13.48;9.30;;;;;;;8.99;73.01;100260.88;5001861;28;20489;-45
2021/11/05 00:12:11;;;;;;;12.45;9.05;;;;;;;8.98;72.78;100264.41;4998609;28;20065;-44
2021/11/05 00:14:37;;;;;;;12.90;8.43;;;;;;;8.98;72.92;100270.50;5000731;28;20075;-44
2021/11/05 00:17:03;;;;;;;12.55;8.98;;;;;;;8.98;73.06;100270.50;5012649;28;20022;-45
2021/11/05 00:19:28;;;;;;;12.00;8.77;;;;;;;8.98;73.14;100267.03;5015592;28;20037;-45
2021/11/05 00:21:53;;;;;;;11.82;8.52;;;;;;;8.97;73.03;100274.03;5005923;28;20085;-42
2021/11/05 00:24:18;;;;;;;12.07;9.35;;;;;;;8.97;73.06;100278.44;5003536;28;20033;-44
2021/11/05 00:26:44;;;;;;;13.27;8.23;;;;;;;8.98;72.91;100285.44;5006848;28;20033;-45
2021/11/05 00:29:09;;;;;;;11.05;9.40;;;;;;;8.97;73.02;100284.56;5004550;28;20129;-45
2021/11/05 00:31:34;;;;;;;11.73;9.25;;;;;;;8.96;73.00;100285.44;5001789;28;20050;-44
2021/11/05 00:34:00;;;;;;;11.27;8.88;;;;;;;8.97;72.88;100287.19;5008912;28;20413;-44
2021/11/05 00:36:25;;;;;;;12.57;9.75;;;;;;;8.97;73.17;100294.22;5000866;28;20045;-45
2021/11/05 00:38:50;;;;;;;11.40;8.63;;;;;;;8.96;72.95;100288.06;4995701;28;20042;-45
2021/11/05 00:41:16;;;;;;;12.57;9.05;;;;;;;8.97;73.09;100288.97;5008680;28;20030;-44
2021/11/05 00:43:42;;;;;;;15.20;9.85;;;;;;;8.95;73.04;100298.63;5009579;28;20034;-45
2021/11/05 00:46:08;;;;;;;10.88;8.23;;;;;;;8.94;73.19;100295.09;5002776;28;20095;-45
2021/11/05 00:48:34;;;;;;;12.23;8.82;;;;;;;8.95;73.13;100298.63;4998988;28;20534;-45
2021/11/05 00:50:59;;;;;;;10.35;7.75;;;;;;;8.96;73.03;100297.72;5005142;28;20030;-45
2021/11/05 00:53:25;;;;;;;13.98;9.20;;;;;;;8.96;73.18;100303.84;5009406;28;20028;-44
2021/11/05 00:55:50;;;;;;;12.57;9.32;;;;;;;8.95;73.23;100301.25;5000335;28;20034;-44
2021/11/05 00:58:16;;;;;;;12.75;9.45;;;;;;;8.94;73.07;100310.88;4996799;28;20034;-44
2021/11/05 01:00:42;;;;;;;11.07;8.07;;;;;;;8.96;73.06;100309.13;4996308;28;20397;-44
2021/11/05 01:03:07;;;;;;;12.45;8.45;;;;;;;8.96;73.01;100316.13;4994756;28;20018;-44
2021/11/05 01:05:33;;;;;;;14.13;9.32;;;;;;;8.95;73.04;100317.03;5002038;28;20029;-45
2021/11/05 01:07:59;;;;;;;11.32;8.35;;;;;;;8.93;72.66;100316.16;4995730;28;20037;-46
2021/11/05 01:10:26;;;;;;;11.50;8.75;;;;;;;8.96;73.21;100329.28;5004221;28;20036;-45
2021/11/05 01:12:52;;;;;;;12.98;8.88;;;;;;;8.94;72.92;100326.66;5004927;28;20496;-45
2021/11/05 01:15:17;;;;;;;11.68;8.30;;;;;;;8.93;73.30;100332.81;4998485;28;20047;-44
2021/11/05 01:17:43;;;;;;;12.70;9.00;;;;;;;8.93;73.11;100335.44;4995473;28;20034;-45
2021/11/05 01:20:14;;;;;;;13.13;9.25;;;;;;;8.93;73.09;100334.56;4994436;28;20029;-45
2021/11/05 01:22:39;;;;;;;13.27;9.38;;;;;;;8.94;73.07;100352.97;4996642;28;20030;-44
2021/11/05 01:25:05;;;;;;;11.77;8.90;;;;;;;8.94;73.09;100349.47;5009664;28;20026;-45
2021/11/05 01:27:30;;;;;;;12.52;9.48;;;;;;;8.92;73.11;100344.22;5010406;28;20111;-44
2021/11/05 01:29:59;;;;;;;12.88;9.57;;;;;;;8.94;73.15;100354.75;5004987;28;20054;-45
2021/11/05 01:32:26;;;;;;;12.90;9.48;;;;;;;8.93;73.14;100366.13;5011145;28;20018;-44
2021/11/05 01:34:52;;;;;;;13.65;9.93;;;;;;;8.94;73.08;100360.00;5013369;28;20112;-44
2021/11/05 01:37:17;;;;;;;11.55;9.23;;;;;;;8.92;73.00;100357.38;4996789;28;20109;-45
2021/11/05 01:39:43;;;;;;;12.20;9.15;;;;;;;8.94;73.01;100370.53;5008021;28;20114;-45
2021/11/05 01:42:08;;;;;;;13.10;9.23;;;;;;;8.93;73.08;100367.00;5005290;28;20044;-45
2021/11/05 01:44:34;;;;;;;11.77;8.93;;;;;;;8.93;73.20;100379.28;5001840;28;20029;-44
2021/11/05 01:47:00;;;;;;;13.65;9.95;;;;;;;8.91;73.02;100374.06;4999406;28;20482;-45
2021/11/05 01:49:26;;;;;;;12.07;8.57;;;;;;;8.93;73.24;100382.78;4994510;28;20038;-44
2021/11/05 01:51:52;;;;;;;12.05;8.68;;;;;;;8.93;73.09;100382.78;5008797;28;20030;-44
2021/11/05 01:54:19;;;;;;;12.85;9.75;;;;;;;8.95;73.09;100385.41;5011639;28;20030;-44
2021/11/05 01:56:45;;;;;;;12.63;9.00;;;;;;;8.93;73.14;100387.16;5011259;28;20033;-45
2021/11/05 01:59:29;;;;;;;12.75;8.57;;;;;;;8.94;73.04;100388.94;5003554;28;20119;-44
2021/11/05 02:01:56;;;;;;;10.73;8.05;;;;;;;8.93;73.02;100398.56;5004765;28;20026;-45
2021/11/05 02:04:26;;;;;;;11.82;8.50;;;;;;;8.91;73.02;100400.34;4994342;28;20030;-44
2021/11/05 02:06:52;;;;;;;12.75;8.82;;;;;;;8.93;73.27;100402.94;4999955;28;20075;-45
2021/11/05 02:09:20;;;;;;;11.18;9.27;;;;;;;8.93;73.06;100410.84;4995452;28;20030;-44
2021/11/05 02:11:47;;;;;;;11.05;8.75;;;;;;;8.93;73.13;100410.84;5004709;28;20037;-44
2021/11/05 02:14:15;;;;;;;11.23;8.40;;;;;;;8.92;73.10;100417.88;5002230;28;20050;-44
2021/11/05 02:16:43;;;;;;;10.38;8.10;;;;;;;8.92;73.02;100415.25;4997044;28;20105;-45
2021/11/05 02:19:15;;;;;;;9.75;7.57;;;;;;;8.91;73.22;100420.50;4997889;28;20042;-45
2021/11/05 02:21:42;;;;;;;11.18;8.15;;;;;;;8.92;73.09;100417.00;4994191;28;20030;-44
2021/11/05 02:24:08;;;;;;;9.93;7.32;;;;;;;8.93;73.09;100424.00;5001749;28;20026;-44
2021/11/05 02:26:34;;;;;;;9.27;7.65;;;;;;;8.92;73.21;100422.25;4993952;28;20490;-44
2021/11/05 02:28:59;;;;;;;9.88;7.43;;;;;;;8.92;72.91;100427.50;4993732;28;20034;-45
2021/11/05 02:31:25;;;;;;;10.40;7.93;;;;;;;8.92;73.05;100438.03;5007390;28;20026;-45
2021/11/05 02:33:50;;;;;;;9.32;7.65;;;;;;;8.91;72.89;100442.44;5004374;28;20026;-45
2021/11/05 02:36:15;;;;;;;9.48;7.55;;;;;;;8.92;73.09;100448.56;5001632;28;20509;-44
2021/11/05 02:38:41;;;;;;;9.32;7.35;;;;;;;8.91;73.11;100452.06;4999342;28;20483;-44
2021/11/05 02:41:06;;;;;;;10.20;8.00;;;;;;;8.91;73.16;100441.56;4993890;28;20026;-45
2021/11/05 02:43:32;;;;;;;9.80;7.85;;;;;;;8.92;73.20;100449.44;4999166;28;20124;-44
2021/11/05 02:45:57;;;;;;;8.88;7.50;;;;;;;8.90;73.18;100455.59;5004118;28;20113;-44
2021/11/05 02:48:22;;;;;;;9.50;7.47;;;;;;;8.90;73.10;100458.22;5005181;28;20476;-42
2021/11/05 02:50:48;;;;;;;8.63;7.22;;;;;;;8.90;73.16;100459.06;4992910;28;20044;-44
2021/11/05 02:53:13;;;;;;;8.95;7.15;;;;;;;8.91;73.13;100473.13;4993702;28;20109;-44
2021/11/05 02:55:39;;;;;;;8.43;6.85;;;;;;;8.91;73.16;100481.00;5009551;28;20112;-45
2021/11/05 02:58:05;;;;;;;7.65;6.53;;;;;;;8.91;73.16;100483.63;4992437;28;20034;-44
2021/11/05 03:00:30;;;;;;;10.40;7.93;;;;;;;8.89;73.08;100483.66;5013820;28;20060;-44
2021/11/05 03:02:55;;;;;;;9.27;7.47;;;;;;;8.90;73.22;100488.00;4997561;28;20042;-44
2021/11/05 03:05:21;;;;;;;9.90;7.40;;;;;;;8.91;72.98;100494.16;5009353;28;20542;-44
2021/11/05 03:07:46;;;;;;;11.82;7.63;;;;;;;8.91;73.25;100502.94;5006388;28;20034;-43
2021/11/05 03:10:15;;;;;;;7.10;6.38;;;;;;;8.91;73.05;100504.69;4998341;28;20026;-44
2021/11/05 03:12:41;;;;;;;8.52;6.85;;;;;;;8.90;73.17;100509.06;5008161;28;20120;-44
2021/11/05 03:15:07;;;;;;;8.13;7.05;;;;;;;8.89;73.12;100515.19;4999219;28;20397;-44
2021/11/05 03:17:41;;;;;;;8.05;6.85;;;;;;;8.90;73.27;100518.72;4998140;28;20561;-42
2021/11/05 03:20:11;;;;;;;7.65;6.75;;;;;;;8.90;73.00;100518.72;4997216;28;20045;-42
2021/11/05 03:22:36;;;;;;;7.53;6.53;;;;;;;8.88;73.04;100525.72;5001994;28;20153;-42
2021/11/05 03:25:02;;;;;;;8.43;6.28;;;;;;;8.89;73.07;100522.22;5006714;28;20112;-43
2021/11/05 03:27:27;;;;;;;9.20;6.85;;;;;;;8.89;73.11;100532.72;5015059;28;20026;-42
2021/11/05 03:29:52;;;;;;;7.03;6.22;;;;;;;8.88;73.17;100536.25;5004061;28;20026;-42
2021/11/05 03:32:18;;;;;;;8.68;6.90;;;;;;;8.89;73.04;100540.63;4995304;28;20025;-42
2021/11/05 03:34:44;;;;;;;6.63;5.68;;;;;;;8.88;73.05;100546.78;4996551;28;20026;-42
2021/11/05 03:37:09;;;;;;;7.38;6.22;;;;;;;8.88;73.21;100546.78;4980160;28;20034;-42
2021/11/05 03:39:34;;;;;;;6.95;5.63;;;;;;;8.87;73.03;100555.56;5001088;28;20120;-42
2021/11/05 03:42:00;;;;;;;6.22;5.55;;;;;;;8.88;73.15;100558.19;4990881;28;20602;-42
2021/11/05 03:44:26;;;;;;;6.60;5.90;;;;;;;8.89;73.12;100559.03;4992316;28;20030;-43
2021/11/05 03:46:51;;;;;;;7.40;5.93;;;;;;;8.88;73.13;100568.69;4992989;28;20041;-42
2021/11/05 03:49:17;;;;;;;6.63;5.57;;;;;;;8.89;73.09;100574.81;5024021;28;20022;-42
2021/11/05 03:51:42;;;;;;;7.45;6.07;;;;;;;8.88;73.15;100580.97;5007929;28;20018;-43
2021/11/05 03:54:08;;;;;;;7.45;5.78;;;;;;;8.87;73.18;100581.84;5010944;28;20029;-42
2021/11/05 03:56:34;;;;;;;5.70;5.07;;;;;;;8.89;73.21;100583.59;5006674;28;20065;-42
2021/11/05 03:58:59;;;;;;;5.75;5.20;;;;;;;8.88;73.09;100588.84;4995104;28;20395;-42
2021/11/05 04:01:27;;;;;;;5.88;4.75;;;;;;;8.87;73.08;100595.00;4992803;28;20034;-43
2021/11/05 04:03:53;;;;;;;7.10;5.40;;;;;;;8.88;73.15;100594.13;5001001;28;20491;-43
2021/11/05 04:06:20;;;;;;;5.07;4.45;;;;;;;8.88;73.13;100602.00;4995840;28;20045;-43
2021/11/05 04:08:45;;;;;;;6.05;5.40;;;;;;;8.87;73.25;100602.91;5009017;28;20397;-43
2021/11/05 04:11:11;;;;;;;6.47;5.30;;;;;;;8.87;73.00;100613.41;4992156;28;20496;-43
2021/11/05 04:13:36;;;;;;;5.22;4.72;;;;;;;8.87;73.11;100614.25;4995388;28;20014;-42
2021/11/05 04:16:02;;;;;;;5.65;4.75;;;;;;;8.87;73.17;100619.53;4992985;28;20161;-42
2021/11/05 04:18:27;;;;;;;5.85;5.20;;;;;;;8.87;73.08;100623.94;4995449;28;20104;-42
2021/11/05 04:20:55;;;;;;;7.35;4.85;;;;;;;8.87;73.08;100618.66;5000302;28;20030;-42
2021/11/05 04:23:24;;;;;;;5.22;4.72;;;;;;;8.88;73.21;100626.56;5010557;28;20367;-42
2021/11/05 04:25:49;;;;;;;5.82;4.35;;;;;;;8.84;73.30;100625.69;5005654;28;20058;-41
2021/11/05 04:28:17;;;;;;;5.28;4.78;;;;;;;8.87;73.22;100634.47;5004031;28;20057;-42
2021/11/05 04:30:46;;;;;;;4.90;4.40;;;;;;;8.87;73.05;100630.06;4993701;28;20026;-42
2021/11/05 04:33:12;;;;;;;5.40;4.72;;;;;;;8.86;73.16;100644.09;4991659;28;20027;-42
2021/11/05 04:35:38;;;;;;;5.90;5.05;;;;;;;8.82;73.02;100630.09;5006354;28;20025;-43
2021/11/05 04:38:04;;;;;;;4.93;4.45;;;;;;;8.84;73.10;100641.47;4995726;28;20116;-41
2021/11/05 04:40:29;;;;;;;5.28;4.65;;;;;;;8.84;73.16;100641.47;5001896;28;20391;-42
2021/11/05 04:42:55;;;;;;;5.20;4.18;;;;;;;8.84;73.38;100649.34;4993381;28;20053;-44
2021/11/05 04:45:21;;;;;;;5.22;4.72;;;;;;;8.84;73.15;100646.72;5001209;28;20061;-43
2021/11/05 04:47:47;;;;;;;6.00;4.57;;;;;;;8.83;73.13;100658.13;4995617;28;20400;-45
2021/11/05 04:50:15;;;;;;;4.65;4.15;;;;;;;8.85;73.06;100656.38;4995329;28;20520;-43
2021/11/05 04:52:53;;;;;;;5.13;4.00;;;;;;;8.85;73.15;100658.13;5008337;28;20022;-43
2021/11/05 04:55:21;;;;;;;5.50;4.60;;;;;;;8.83;73.07;100658.13;5000892;28;20810;-43
2021/11/05 04:57:47;;;;;;;4.40;3.80;;;;;;;8.84;73.14;100667.75;4999489;28;20034;-44
2021/11/05 05:00:17;;;;;;;4.75;4.30;;;;;;;8.83;73.08;100665.13;5006947;28;20032;-44
2021/11/05 05:02:42;;;;;;;4.80;4.32;;;;;;;8.81;73.13;100667.75;4997949;28;20037;-43
2021/11/05 05:05:08;;;;;;;4.97;4.10;;;;;;;8.83;73.26;100673.91;5006510;28;20030;-43
2021/11/05 05:07:33;;;;;;;4.18;3.78;;;;;;;8.83;73.09;100670.38;5006289;28;20050;-43
2021/11/05 05:10:02;;;;;;;4.93;4.45;;;;;;;8.85;73.13;100681.78;5005827;28;20539;-43
2021/11/05 05:12:27;;;;;;;5.15;4.30;;;;;;;8.84;73.07;100685.31;5010240;28;20201;-43
2021/11/05 05:14:53;;;;;;;4.95;4.53;;;;;;;8.84;73.17;100693.22;5007847;28;20033;-44
2021/11/05 05:17:18;;;;;;;5.85;4.15;;;;;;;8.83;73.29;100687.06;5006943;28;20034;-44
2021/11/05 05:19:43;;;;;;;4.25;3.78;;;;;;;8.83;73.20;100697.56;5007241;28;20533;-44
2021/11/05 05:22:09;;;;;;;4.75;4.13;;;;;;;8.81;73.38;100699.31;5006185;28;20418;-43
2021/11/05 05:24:36;;;;;;;4.13;3.78;;;;;;;8.83;73.12;100707.22;4998195;28;20391;-43
2021/11/05 05:27:01;;;;;;;5.50;4.40;;;;;;;8.82;73.21;100706.34;5003686;28;20027;-42
2021/11/05 05:29:26;;;;;;;5.22;4.65;;;;;;;8.83;73.19;100705.47;5011996;28;20552;-42
2021/11/05 05:31:51;;;;;;;4.90;4.03;;;;;;;8.83;73.13;100705.47;5008234;28;20458;-42
2021/11/05 05:34:20;;;;;;;5.00;4.15;;;;;;;8.82;73.11;100713.34;5010097;28;20026;-43
2021/11/05 05:36:45;;;;;;;4.50;4.10;;;;;;;8.83;73.33;100712.47;5008453;28;20030;-43
2021/11/05 05:39:11;;;;;;;4.22;3.72;;;;;;;8.82;73.22;100727.41;5001660;28;20165;-42
2021/11/05 05:41:36;;;;;;;4.90;4.40;;;;;;;8.82;73.24;100727.41;5008178;28;20036;-42
2021/11/05 05:44:02;;;;;;;4.18;3.78;;;;;;;8.81;73.17;100728.25;4996481;28;20030;-42
2021/11/05 05:46:37;;;;;;;4.15;3.75;;;;;;;8.81;73.00;100741.41;5007755;28;20041;-42
2021/11/05 05:49:02;;;;;;;4.53;4.03;;;;;;;8.82;73.63;100751.06;5011583;28;20088;-43
2021/11/05 05:51:32;;;;;;;4.25;3.85;;;;;;;8.81;73.07;100744.03;5008844;28;20026;-43
2021/11/05 05:54:03;;;;;;;4.20;3.80;;;;;;;8.81;73.02;100762.44;5012059;28;20029;-44
2021/11/05 05:56:29;;;;;;;4.85;3.72;;;;;;;8.81;73.24;100759.81;5006283;28;20034;-42
2021/11/05 05:58:54;;;;;;;4.53;4.10;;;;;;;8.81;73.10;100769.47;4998016;28;20031;-42
2021/11/05 06:01:19;;;;;;;4.30;3.58;;;;;;;8.80;73.05;100781.72;5009075;28;20478;-42
2021/11/05 06:03:45;;;;;;;5.05;4.05;;;;;;;8.80;73.20;100776.47;5006069;28;20029;-42
2021/11/05 06:06:13;;;;;;;3.25;2.95;;;;;;;8.80;73.32;100787.00;5001445;28;20038;-43
2021/11/05 06:08:40;;;;;;;3.90;3.55;;;;;;;8.80;72.96;100787.00;5003942;28;20029;-43
2021/11/05 06:11:06;;;;;;;4.05;3.63;;;;;;;8.79;73.24;100785.25;5003174;28;20503;-42
2021/11/05 06:13:32;;;;;;;4.28;3.53;;;;;;;8.80;73.17;100792.25;5009019;28;20022;-42
2021/11/05 06:15:58;;;;;;;3.78;3.47;;;;;;;8.81;73.24;100799.25;5000403;28;20029;-42
2021/11/05 06:18:27;;;;;;;3.97;3.58;;;;;;;8.79;73.20;100795.78;5009362;28;20032;-42
2021/11/05 06:20:52;;;;;;;4.00;3.22;;;;;;;8.81;73.24;100801.03;5002327;28;20087;-42
2021/11/05 06:23:17;;;;;;;4.68;4.28;;;;;;;8.80;73.25;100805.41;5003753;28;20108;-43
2021/11/05 06:25:42;;;;;;;4.18;3.58;;;;;;;8.80;72.98;100813.28;5005520;28;20128;-43
2021/11/05 06:28:08;;;;;;;3.65;3.35;;;;;;;8.80;73.12;100813.28;5001569;28;20076;-43
2021/11/05 06:30:33;;;;;;;4.32;3.83;;;;;;;8.79;73.19;100811.56;4994769;28;20083;-42
2021/11/05 06:33:00;;;;;;;3.40;3.08;;;;;;;8.79;73.18;100824.69;4998705;28;20022;-43
2021/11/05 06:35:25;;;;;;;4.65;3.22;;;;;;;8.79;73.10;100824.69;4998771;28;20029;-43
2021/11/05 06:37:50;;;;;;;4.03;3.72;;;;;;;8.79;73.07;100829.97;5004947;28;20037;-42
2021/11/05 06:40:16;;;;;;;3.45;3.15;;;;;;;8.80;73.18;100838.75;5001428;28;20038;-42
2021/11/05 06:42:42;;;;;;;3.85;3.20;;;;;;;8.79;73.32;100843.09;5000942;28;20038;-44
2021/11/05 06:45:09;;;;;;;5.05;3.55;;;;;;;8.79;73.17;100848.38;5002687;28;20037;-44
2021/11/05 06:47:35;;;;;;;4.32;3.53;;;;;;;8.79;73.32;100853.63;4999308;28;20041;-44
2021/11/05 06:50:00;;;;;;;3.85;3.35;;;;;;;8.79;73.06;100864.16;4999921;28;20030;-42
2021/11/05 06:52:26;;;;;;;4.95;3.45;;;;;;;8.78;73.12;100862.41;5011513;28;20481;-43
2021/11/05 06:54:51;;;;;;;4.32;3.03;;;;;;;8.77;73.31;100871.16;5000256;28;20026;-42
2021/11/05 06:57:16;;;;;;;3.70;3.40;;;;;;;8.78;73.04;100866.78;5009282;28;20034;-42
2021/11/05 06:59:43;;;;;;;3.58;2.97;;;;;;;8.78;73.18;100875.56;5008914;28;20030;-42
2021/11/05 07:02:08;;;;;;;4.03;3.00;;;;;;;8.79;73.32;100889.56;5025231;28;20360;-44
2021/11/05 07:04:33;;;;;;;3.50;3.00;;;;;;;8.78;73.32;100888.69;4998548;28;20545;-44
2021/11/05 07:06:59;;;;;;;3.78;3.40;;;;;;;8.78;73.08;100893.97;5004077;28;20506;-43
2021/11/05 07:09:25;;;;;;;3.45;3.10;;;;;;;8.77;73.36;100888.69;5000039;28;20033;-43
2021/11/05 07:11:51;;;;;;;3.20;2.90;;;;;;;8.79;73.20;100900.09;5003165;28;20568;-43
2021/11/05 07:14:16;;;;;;;3.25;2.95;;;;;;;8.78;73.22;100904.47;5006035;28;20030;-42
2021/11/05 07:16:42;;;;;;;3.17;2.70;;;;;;;8.78;73.09;100914.13;4995898;28;20057;-42
2021/11/05 07:19:07;;;;;;;2.70;2.50;;;;;;;8.79;73.15;100915.84;5004607;28;20076;-42
2021/11/05 07:21:34;;;;;;;3.30;3.00;;;;;;;8.79;73.14;100921.13;4999465;28;21308;-43
2021/11/05 07:24:03;;;;;;;3.15;2.85;;;;;;;8.78;73.28;100927.25;5000697;28;20117;-43
2021/11/05 07:26:46;;;;;;;3.13;2.83;;;;;;;8.79;73.17;100926.38;5006475;28;20029;-42
2021/11/05 07:29:12;;;;;;;3.40;2.92;;;;;;;8.76;73.11;100929.88;4999300;28;20021;-43
2021/11/05 07:31:39;;;;;;;2.97;2.58;;;;;;;8.77;73.13;100938.66;4997654;28;20022;-43
2021/11/05 07:34:05;;;;;;;3.47;3.17;;;;;;;8.76;73.15;100943.03;5003500;28;20037;-43
2021/11/05 07:36:30;;;;;;;3.17;2.88;;;;;;;8.77;73.19;100943.94;4995067;28;20041;-43
2021/11/05 07:38:56;;;;;;;2.92;2.65;;;;;;;8.76;73.08;100958.81;4994839;28;20026;-43
2021/11/05 07:41:21;;;;;;;2.90;2.58;;;;;;;8.75;73.02;100951.81;5002839;28;20038;-43
2021/11/05 07:43:47;;;;;;;2.92;2.65;;;;;;;8.75;73.37;100954.44;4999066;28;20029;-42
2021/11/05 07:46:13;;;;;;;2.55;2.35;;;;;;;8.76;73.08;100952.66;4994251;28;20525;-44
2021/11/05 07:48:38;;;;;;;2.70;2.50;;;;;;;8.76;73.27;100957.94;5004624;28;20117;-44
2021/11/05 07:51:03;;;;;;;3.08;2.78;;;;;;;8.75;73.26;100957.06;5007933;28;20030;-43
2021/11/05 07:53:29;;;;;;;2.60;2.38;;;;;;;8.76;73.04;100971.97;5007825;28;20470;-42
2021/11/05 07:55:54;;;;;;;3.13;2.83;;;;;;;8.75;73.04;100967.59;4995714;28;20062;-43
2021/11/05 07:58:19;;;;;;;2.78;2.58;;;;;;;8.76;73.30;100968.44;4994162;28;20040;-44
2021/11/05 08:00:45;;;;;;;3.25;2.95;;;;;;;8.75;73.16;100972.84;5000079;28;20038;-44
2021/11/05 08:03:10;;;;;;;3.38;3.08;;;;;;;8.75;73.21;100983.38;5000107;28;20031;-43
2021/11/05 08:05:35;;;;;;;3.17;2.88;;;;;;;8.75;73.15;100990.38;4994759;28;20030;-45
2021/11/05 08:08:01;;;;;;;2.72;2.50;;;;;;;8.75;73.12;100987.75;4994975;28;20065;-44
2021/11/05 08:10:26;;;;;;;3.35;2.95;;;;;;;8.75;73.23;100993.00;4993922;28;20026;-45
2021/11/05 08:12:52;;;;;;;3.03;2.60;;;;;;;8.74;73.18;100997.41;5000088;28;20026;-44
2021/11/05 08:15:20;;;;;;;3.00;2.58;;;;;;;8.75;73.27;101000.88;5006404;28;20026;-44
2021/11/05 08:17:45;;;;;;;4.47;2.78;;;;;;;8.75;73.17;101009.66;4992607;28;20393;-43
2021/11/05 08:20:12;;;;;;;3.45;2.97;;;;;;;8.75;73.15;101019.28;4992161;28;20030;-44
2021/11/05 08:22:39;;;;;;;3.38;3.00;;;;;;;8.73;73.14;101016.66;4992183;28;20035;-44
2021/11/05 08:25:05;;;;;;;3.95;3.53;;;;;;;8.74;73.14;101018.44;4993260;28;20409;-43
2021/11/05 08:27:30;;;;;;;4.88;3.20;;;;;;;8.74;73.22;101026.31;4998942;28;20030;-45
2021/11/05 08:29:56;;;;;;;3.85;3.45;;;;;;;8.75;73.17;101035.06;5011669;28;20022;-45
2021/11/05 08:32:21;;;;;;;3.65;3.35;;;;;;;8.73;73.51;101028.06;5000272;28;20033;-45
2021/11/05 08:34:46;;;;;;;3.50;3.08;;;;;;;8.73;72.99;101022.81;4993221;28;20057;-45
2021/11/05 08:37:12;;;;;;;4.10;3.30;;;;;;;8.75;73.29;101035.97;4993415;28;20037;-45
2021/11/05 08:39:38;;;;;;;3.70;3.10;;;;;;;8.73;73.19;101037.69;5002686;28;20053;-45
2021/11/05 08:42:04;;;;;;;4.20;3.78;;;;;;;8.74;73.04;101039.47;5006359;28;20031;-45
2021/11/05 08:44:32;;;;;;;3.72;3.33;;;;;;;8.72;73.37;101042.09;4999027;28;20029;-45
2021/11/05 08:46:59;;;;;;;3.65;3.22;;;;;;;8.75;73.17;101045.59;5014985;28;20030;-45
2021/11/05 08:49:25;;;;;;;4.72;4.20;;;;;;;8.71;73.16;101048.22;5014856;28;20021;-45
2021/11/05 08:51:51;;;;;;;4.97;3.90;;;;;;;8.74;73.33;101050.00;5013526;28;20402;-44
2021/11/05 08:54:16;;;;;;;3.83;3.42;;;;;;;8.72;73.28;101055.25;5014061;28;20037;-45
2021/11/05 08:56:42;;;;;;;3.92;3.53;;;;;;;8.72;73.19;101055.25;4998146;28;20030;-44
2021/11/05 08:59:08;;;;;;;4.13;3.40;;;;;;;8.72;73.24;101063.13;5004041;28;20033;-43
2021/11/05 09:01:33;;;;;;;4.53;3.83;;;;;;;8.73;73.19;101061.38;4999772;28;20068;-43
2021/11/05 09:03:59;;;;;;;4.00;3.53;;;;;;;8.73;73.11;101069.25;5005800;28;20034;-44
2021/11/05 09:06:26;;;;;;;4.38;3.88;;;;;;;8.72;73.21;101068.41;5005836;28;20058;-44
2021/11/05 09:08:52;;;;;;;5.82;3.90;;;;;;;8.73;73.42;101077.16;5000342;28;20026;-43
2021/11/05 09:11:18;;;;;;;3.83;3.40;;;;;;;8.72;73.21;101070.13;5010299;28;20029;-43
2021/11/05 09:13:43;;;;;;;4.80;3.95;;;;;;;8.72;73.22;101078.03;5006591;28;20040;-45
2021/11/05 09:16:08;;;;;;;5.45;4.18;;;;;;;8.73;73.24;101080.66;5006850;28;20596;-45
2021/11/05 09:18:34;;;;;;;5.32;3.78;;;;;;;8.72;73.16;101086.81;5008948;28;20033;-43
2021/11/05 09:21:01;;;;;;;5.05;4.13;;;;;;;8.72;73.15;101092.06;5001002;28;20446;-42
2021/11/05 09:23:26;;;;;;;5.20;4.03;;;;;;;8.72;73.09;101099.06;5003475;28;20053;-44
2021/11/05 09:25:52;;;;;;;5.97;4.00;;;;;;;8.73;73.21;101100.81;5004779;28;20030;-45
2021/11/05 09:28:18;;;;;;;5.78;4.60;;;;;;;8.72;73.41;101104.31;5000264;28;20030;-43
2021/11/05 09:30:43;;;;;;;5.30;4.43;;;;;;;8.71;73.25;101105.19;5000423;28;20034;-44
2021/11/05 09:33:08;;;;;;;5.88;4.63;;;;;;;8.71;73.30;101111.31;5009330;28;20037;-43
2021/11/05 09:35:36;;;;;;;5.28;4.55;;;;;;;8.72;73.24;101114.84;4995549;28;20036;-42
2021/11/05 09:38:01;;;;;;;4.65;4.07;;;;;;;8.71;73.38;101113.94;5006095;28;20097;-43
2021/11/05 09:40:27;;;;;;;6.45;5.40;;;;;;;8.73;73.38;101127.13;5000544;28;20172;-45
2021/11/05 09:42:53;;;;;;;7.05;4.78;;;;;;;8.72;73.24;101135.88;4995246;28;20037;-44
2021/11/05 09:45:20;;;;;;;6.40;4.97;;;;;;;8.72;73.40;101130.63;4995581;28;20033;-44
2021/11/05 09:47:46;;;;;;;5.65;4.68;;;;;;;8.71;73.30;101132.34;5001361;28;20117;-44
2021/11/05 09:50:21;;;;;;;5.80;4.93;;;;;;;8.72;73.45;101136.78;5002184;28;20557;-42
2021/11/05 09:52:47;;;;;;;5.43;4.72;;;;;;;8.70;73.33;101143.75;5003528;28;20037;-42
2021/11/05 09:55:15;;;;;;;6.30;5.18;;;;;;;8.71;73.41;101148.13;5006496;28;20029;-42
2021/11/05 09:57:41;;;;;;;8.25;6.07;;;;;;;8.71;73.33;101150.78;5002021;28;20033;-42
2021/11/05 10:00:08;;;;;;;6.38;5.30;;;;;;;8.71;73.27;101153.41;5008870;28;20026;-42
2021/11/05 10:02:34;;;;;;;8.00;5.65;;;;;;;8.72;73.27;101156.91;4996922;28;20405;-42
2021/11/05 10:05:00;;;;;;;6.88;4.82;;;;;;;8.71;73.34;101156.03;5012368;28;20037;-42
2021/11/05 10:07:26;;;;;;;8.05;5.20;;;;;;;8.72;73.22;101167.44;5014315;28;20049;-43
2021/11/05 10:09:54;;;;;;;6.50;5.40;;;;;;;8.70;73.42;101167.44;5007328;28;20030;-44
2021/11/05 10:12:22;;;;;;;7.85;5.78;;;;;;;8.72;73.42;101167.44;5010344;28;20026;-42
2021/11/05 10:14:55;;;;;;;8.75;6.13;;;;;;;8.73;73.51;101174.44;4999520;28;20117;-42
2021/11/05 10:17:21;;;;;;;7.80;5.82;;;;;;;8.71;73.52;101168.31;5011793;28;20105;-42
2021/11/05 10:20:01;;;;;;;8.63;6.03;;;;;;;8.71;73.54;101171.81;5001352;28;20085;-45
2021/11/05 10:22:50;;;;;;;7.68;5.70;;;;;;;8.72;73.43;101167.44;5007560;28;20022;-43
2021/11/05 10:25:38;;;;;;;8.02;6.07;;;;;;;8.72;73.60;101172.69;4995321;28;20112;-43
2021/11/05 10:28:23;;;;;;;8.23;6.43;;;;;;;8.71;73.49;101171.81;4997169;28;20023;-42
2021/11/05 10:31:00;;;;;;;8.25;6.68;;;;;;;8.70;73.58;101179.69;5002924;28;20032;-42
2021/11/05 10:33:32;;;;;;;7.90;6.22;;;;;;;8.70;73.67;101169.16;5002819;28;20030;-42
2021/11/05 10:36:04;;;;;;;8.70;6.88;;;;;;;8.71;73.44;101177.06;5012516;28;20036;-43
2021/11/05 10:38:31;;;;;;;9.52;7.18;;;;;;;8.70;73.63;101185.84;5007937;28;20056;-42
2021/11/05 10:41:00;;;;;;;8.90;6.57;;;;;;;8.72;73.74;101189.38;5000853;28;20063;-42
2021/11/05 10:43:40;;;;;;;9.40;7.03;;;;;;;8.72;73.54;101194.63;5007258;28;20096;-42
2021/11/05 10:46:08;;;;;;;10.38;7.22;;;;;;;8.71;73.58;101194.63;4996688;28;20026;-42
2021/11/05 10:48:36;;;;;;;8.95;6.85;;;;;;;8.72;73.60;101194.63;4992088;28;20030;-43
2021/11/05 10:51:03;;;;;;;9.82;7.28;;;;;;;8.72;73.68;101204.25;4998153;28;20045;-42
2021/11/05 10:53:37;;;;;;;9.27;7.57;;;;;;;8.72;73.67;101201.63;5006804;28;20037;-43
2021/11/05 10:56:07;;;;;;;12.88;8.23;;;;;;;8.73;73.73;101206.00;5005519;28;20022;-42
2021/11/05 10:58:36;;;;;;;9.70;7.70;;;;;;;8.73;73.79;101216.53;4996346;28;20034;-43
2021/11/05 11:01:05;;;;;;;11.23;7.90;;;;;;;8.72;73.74;101204.25;4993064;28;20273;-42
2021/11/05 11:03:38;;;;;;;10.75;7.93;;;;;;;8.73;73.71;101206.00;4993536;28;20035;-43
2021/11/05 11:06:09;;;;;;;10.60;8.13;;;;;;;8.72;73.82;101209.53;4997610;28;20026;-42
2021/11/05 11:08:42;;;;;;;11.15;7.63;;;;;;;8.73;73.72;101227.06;4998302;28;20053;-43
2021/11/05 11:11:26;;;;;;;9.25;7.35;;;;;;;8.73;73.67;101221.78;4999256;28;20033;-42
2021/11/05 11:14:16;;;;;;;11.23;8.15;;;;;;;8.72;73.77;101225.31;5002995;28;20501;-42
2021/11/05 11:16:55;;;;;;;10.45;7.50;;;;;;;8.72;73.74;101225.31;4999961;28;20554;-42
2021/11/05 11:19:23;;;;;;;10.32;7.75;;;;;;;8.72;73.76;101233.19;5006099;28;20052;-43
2021/11/05 11:21:48;;;;;;;10.10;8.48;;;;;;;8.72;73.85;101225.31;4997044;28;20022;-42
2021/11/05 11:24:19;;;;;;;10.60;8.03;;;;;;;8.73;73.77;101230.56;5001864;28;20030;-42
2021/11/05 11:26:46;;;;;;;12.80;9.63;;;;;;;8.73;73.76;101232.31;4992974;28;20038;-41
2021/11/05 11:29:12;;;;;;;11.52;8.23;;;;;;;8.73;73.79;101234.94;4997015;28;20033;-41
2021/11/05 11:31:41;;;;;;;10.27;7.88;;;;;;;8.74;73.78;101239.34;5004488;28;20042;-43